sensor_id;sensor_type;location;lat;lon;timestamp;pressure;altitude;pressure_sealevel;temperature;humidity
26807;BME280;14380;49.910;6.792;2024-01-11T00:01:26;99975.50;;;-4.40;83.72
26807;BME280;14380;49.910;6.792;2024-01-11T00:03:54;99969.19;;;-4.16;83.13
26807;BME280;14380;49.910;6.792;2024-01-11T00:06:21;99965.50;;;-4.28;82.95
26807;BME280;14380;49.910;6.792;2024-01-11T00:08:47;99961.91;;;-3.98;82.03
26807;BME280;14380;49.910;6.792;2024-01-11T00:11:14;99966.00;;;-4.06;81.65
26807;BME280;14380;49.910;6.792;2024-01-11T00:13:41;99961.91;;;-4.35;81.81
26807;BME280;14380;49.910;6.792;2024-01-11T00:16:08;99958.84;;;-4.20;82.75
26807;BME280;14380;49.910;6.792;2024-01-11T00:18:34;99958.78;;;-4.21;82.46
26807;BME280;14380;49.910;6.792;2024-01-11T00:21:03;99955.69;;;-4.08;82.54
26807;BME280;14380;49.910;6.792;2024-01-11T00:23:29;99957.03;;;-4.24;82.91
26807;BME280;14380;49.910;6.792;2024-01-11T00:25:56;99960.66;;;-4.51;84.50
26807;BME280;14380;49.910;6.792;2024-01-11T00:28:22;99962.19;;;-4.22;83.72
26807;BME280;14380;49.910;6.792;2024-01-11T00:30:49;99965.31;;;-4.36;83.86
26807;BME280;14380;49.910;6.792;2024-01-11T00:33:16;99971.28;;;-4.37;83.28
26807;BME280;14380;49.910;6.792;2024-01-11T00:35:43;99975.03;;;-4.25;83.66
26807;BME280;14380;49.910;6.792;2024-01-11T00:38:11;99972.34;;;-4.30;83.16
26807;BME280;14380;49.910;6.792;2024-01-11T00:40:38;99978.19;;;-4.36;84.15
26807;BME280;14380;49.910;6.792;2024-01-11T00:43:04;99983.59;;;-4.26;83.60
26807;BME280;14380;49.910;6.792;2024-01-11T00:45:31;99979.09;;;-4.34;82.48
26807;BME280;14380;49.910;6.792;2024-01-11T00:47:58;99985.66;;;-4.48;83.95
26807;BME280;14380;49.910;6.792;2024-01-11T00:50:25;99988.66;;;-4.63;85.22
26807;BME280;14380;49.910;6.792;2024-01-11T00:52:51;99993.06;;;-4.60;86.61
26807;BME280;14380;49.910;6.792;2024-01-11T00:55:20;100001.09;;;-4.80;86.99
26807;BME280;14380;49.910;6.792;2024-01-11T00:57:46;100011.88;;;-4.95;87.05
26807;BME280;14380;49.910;6.792;2024-01-11T01:00:13;99993.69;;;-4.69;86.61
26807;BME280;14380;49.910;6.792;2024-01-11T01:02:40;100002.91;;;-4.78;84.90
26807;BME280;14380;49.910;6.792;2024-01-11T01:05:07;100010.72;;;-4.74;84.98
26807;BME280;14380;49.910;6.792;2024-01-11T01:07:34;100013.91;;;-4.51;85.42
26807;BME280;14380;49.910;6.792;2024-01-11T01:10:01;100010.19;;;-4.61;84.90
26807;BME280;14380;49.910;6.792;2024-01-11T01:12:29;100014.78;;;-4.83;85.15
26807;BME280;14380;49.910;6.792;2024-01-11T01:14:56;100027.19;;;-5.30;86.79
26807;BME280;14380;49.910;6.792;2024-01-11T01:17:23;100018.50;;;-5.03;86.58
26807;BME280;14380;49.910;6.792;2024-01-11T01:19:50;100018.41;;;-4.76;85.91
26807;BME280;14380;49.910;6.792;2024-01-11T01:22:16;100009.91;;;-4.72;84.33
26807;BME280;14380;49.910;6.792;2024-01-11T01:24:43;100017.84;;;-4.96;85.11
26807;BME280;14380;49.910;6.792;2024-01-11T01:27:10;100018.59;;;-5.00;85.29
26807;BME280;14380;49.910;6.792;2024-01-11T01:29:38;100010.38;;;-5.17;86.05
26807;BME280;14380;49.910;6.792;2024-01-11T01:32:05;100020.97;;;-5.08;85.22
26807;BME280;14380;49.910;6.792;2024-01-11T01:34:31;100012.13;;;-5.16;86.07
26807;BME280;14380;49.910;6.792;2024-01-11T01:36:58;100021.31;;;-5.26;85.95
26807;BME280;14380;49.910;6.792;2024-01-11T01:39:25;100028.56;;;-5.42;86.52
26807;BME280;14380;49.910;6.792;2024-01-11T01:41:52;100029.16;;;-5.22;86.84
26807;BME280;14380;49.910;6.792;2024-01-11T01:44:18;100031.53;;;-5.28;86.49
26807;BME280;14380;49.910;6.792;2024-01-11T01:46:47;100026.81;;;-5.14;86.55
26807;BME280;14380;49.910;6.792;2024-01-11T01:49:14;100033.16;;;-5.31;86.20
26807;BME280;14380;49.910;6.792;2024-01-11T01:51:43;100032.78;;;-5.44;87.75
26807;BME280;14380;49.910;6.792;2024-01-11T01:54:10;100045.38;;;-5.24;85.72
26807;BME280;14380;49.910;6.792;2024-01-11T01:56:37;100044.03;;;-5.11;85.88
26807;BME280;14380;49.910;6.792;2024-01-11T01:59:04;100044.75;;;-5.17;85.53
26807;BME280;14380;49.910;6.792;2024-01-11T02:01:32;100041.81;;;-5.29;86.81
26807;BME280;14380;49.910;6.792;2024-01-11T02:04:01;100041.06;;;-5.25;85.51
26807;BME280;14380;49.910;6.792;2024-01-11T02:06:28;100031.78;;;-5.20;85.88
26807;BME280;14380;49.910;6.792;2024-01-11T02:08:58;100039.94;;;-5.04;85.19
26807;BME280;14380;49.910;6.792;2024-01-11T02:11:25;100047.03;;;-5.26;84.56
26807;BME280;14380;49.910;6.792;2024-01-11T02:13:53;100052.31;;;-5.50;87.23
26807;BME280;14380;49.910;6.792;2024-01-11T02:16:20;100045.91;;;-5.36;85.85
26807;BME280;14380;49.910;6.792;2024-01-11T02:18:47;100044.59;;;-5.22;85.08
26807;BME280;14380;49.910;6.792;2024-01-11T02:21:16;100042.13;;;-5.47;85.95
26807;BME280;14380;49.910;6.792;2024-01-11T02:23:44;100035.72;;;-5.31;87.29
26807;BME280;14380;49.910;6.792;2024-01-11T02:26:14;100026.72;;;-5.46;87.20
26807;BME280;14380;49.910;6.792;2024-01-11T02:28:44;100028.13;;;-5.27;87.59
26807;BME280;14380;49.910;6.792;2024-01-11T02:31:11;100026.66;;;-5.18;86.65
26807;BME280;14380;49.910;6.792;2024-01-11T02:33:38;100033.22;;;-5.30;86.79
26807;BME280;14380;49.910;6.792;2024-01-11T02:36:05;100026.72;;;-5.17;86.25
26807;BME280;14380;49.910;6.792;2024-01-11T02:38:33;100024.31;;;-5.41;87.41
26807;BME280;14380;49.910;6.792;2024-01-11T02:41:00;100028.13;;;-5.57;87.77
26807;BME280;14380;49.910;6.792;2024-01-11T02:43:28;100037.75;;;-5.50;87.63
26807;BME280;14380;49.910;6.792;2024-01-11T02:45:55;100037.09;;;-5.43;86.65
26807;BME280;14380;49.910;6.792;2024-01-11T02:48:27;100030.47;;;-5.36;86.18
26807;BME280;14380;49.910;6.792;2024-01-11T02:50:54;100038.13;;;-5.38;86.53
26807;BME280;14380;49.910;6.792;2024-01-11T02:53:21;100032.94;;;-5.39;87.52
26807;BME280;14380;49.910;6.792;2024-01-11T02:55:47;100030.94;;;-5.48;87.28
26807;BME280;14380;49.910;6.792;2024-01-11T02:58:14;100024.13;;;-5.47;87.54
26807;BME280;14380;49.910;6.792;2024-01-11T03:00:42;100025.56;;;-5.27;88.42
26807;BME280;14380;49.910;6.792;2024-01-11T03:03:09;100030.13;;;-5.47;88.03
26807;BME280;14380;49.910;6.792;2024-01-11T03:05:35;100032.91;;;-5.95;89.98
26807;BME280;14380;49.910;6.792;2024-01-11T03:08:02;100038.19;;;-5.36;88.03
26807;BME280;14380;49.910;6.792;2024-01-11T03:10:29;100027.81;;;-5.38;87.15
26807;BME280;14380;49.910;6.792;2024-01-11T03:12:57;100028.00;;;-5.31;87.55
26807;BME280;14380;49.910;6.792;2024-01-11T03:15:24;100024.94;;;-5.48;86.77
26807;BME280;14380;49.910;6.792;2024-01-11T03:17:52;100026.69;;;-5.47;87.57
26807;BME280;14380;49.910;6.792;2024-01-11T03:20:18;100036.19;;;-5.45;86.49
26807;BME280;14380;49.910;6.792;2024-01-11T03:22:49;100024.03;;;-5.50;86.62
26807;BME280;14380;49.910;6.792;2024-01-11T03:25:16;100027.09;;;-5.62;87.18
26807;BME280;14380;49.910;6.792;2024-01-11T03:27:43;100019.88;;;-5.45;88.29
26807;BME280;14380;49.910;6.792;2024-01-11T03:30:10;100029.84;;;-5.27;86.41
26807;BME280;14380;49.910;6.792;2024-01-11T03:32:37;100026.06;;;-5.40;88.45
26807;BME280;14380;49.910;6.792;2024-01-11T03:35:06;100033.41;;;-5.51;88.36
26807;BME280;14380;49.910;6.792;2024-01-11T03:37:33;100028.94;;;-5.58;88.56
26807;BME280;14380;49.910;6.792;2024-01-11T03:40:00;100025.03;;;-5.45;87.27
26807;BME280;14380;49.910;6.792;2024-01-11T03:42:26;100027.41;;;-5.52;87.52
26807;BME280;14380;49.910;6.792;2024-01-11T03:44:53;100023.38;;;-5.43;86.82
26807;BME280;14380;49.910;6.792;2024-01-11T03:47:20;100020.66;;;-5.48;86.38
26807;BME280;14380;49.910;6.792;2024-01-11T03:49:46;100017.91;;;-5.25;86.64
26807;BME280;14380;49.910;6.792;2024-01-11T03:52:14;100022.78;;;-5.63;87.49
26807;BME280;14380;49.910;6.792;2024-01-11T03:54:41;100017.53;;;-5.38;86.93
26807;BME280;14380;49.910;6.792;2024-01-11T03:57:07;100026.78;;;-5.44;87.67
26807;BME280;14380;49.910;6.792;2024-01-11T03:59:34;100026.47;;;-5.83;89.23
26807;BME280;14380;49.910;6.792;2024-01-11T04:02:01;100022.41;;;-5.47;87.79
26807;BME280;14380;49.910;6.792;2024-01-11T04:04:27;100017.88;;;-5.83;88.66
26807;BME280;14380;49.910;6.792;2024-01-11T04:06:54;100016.31;;;-5.50;87.95
26807;BME280;14380;49.910;6.792;2024-01-11T04:09:22;100016.94;;;-5.85;88.28
26807;BME280;14380;49.910;6.792;2024-01-11T04:11:48;100013.84;;;-5.75;89.13
26807;BME280;14380;49.910;6.792;2024-01-11T04:14:15;100015.56;;;-5.46;88.21
26807;BME280;14380;49.910;6.792;2024-01-11T04:16:41;100016.06;;;-5.58;89.13
26807;BME280;14380;49.910;6.792;2024-01-11T04:19:08;100019.41;;;-5.88;89.20
26807;BME280;14380;49.910;6.792;2024-01-11T04:21:35;100013.94;;;-5.72;89.06
26807;BME280;14380;49.910;6.792;2024-01-11T04:24:04;100016.53;;;-5.72;88.11
26807;BME280;14380;49.910;6.792;2024-01-11T04:26:35;100023.00;;;-5.85;89.25
26807;BME280;14380;49.910;6.792;2024-01-11T04:29:01;100017.59;;;-5.36;87.72
26807;BME280;14380;49.910;6.792;2024-01-11T04:31:28;100020.72;;;-5.46;86.63
26807;BME280;14380;49.910;6.792;2024-01-11T04:33:55;100029.66;;;-5.33;87.63
26807;BME280;14380;49.910;6.792;2024-01-11T04:36:21;100023.75;;;-6.15;89.98
26807;BME280;14380;49.910;6.792;2024-01-11T04:38:50;100021.25;;;-5.57;88.42
26807;BME280;14380;49.910;6.792;2024-01-11T04:41:16;100030.47;;;-5.36;86.69
26807;BME280;14380;49.910;6.792;2024-01-11T04:43:45;100030.09;;;-5.48;87.56
26807;BME280;14380;49.910;6.792;2024-01-11T04:46:15;100032.56;;;-5.52;88.36
26807;BME280;14380;49.910;6.792;2024-01-11T04:48:42;100025.03;;;-5.45;87.20
26807;BME280;14380;49.910;6.792;2024-01-11T04:51:08;100019.09;;;-5.43;86.57
26807;BME280;14380;49.910;6.792;2024-01-11T04:53:38;100028.03;;;-5.60;89.00
26807;BME280;14380;49.910;6.792;2024-01-11T04:56:06;100026.28;;;-5.61;89.27
26807;BME280;14380;49.910;6.792;2024-01-11T04:58:33;100012.81;;;-5.53;89.20
26807;BME280;14380;49.910;6.792;2024-01-11T05:01:01;100016.28;;;-5.52;88.07
26807;BME280;14380;49.910;6.792;2024-01-11T05:03:28;100009.06;;;-5.33;88.92
26807;BME280;14380;49.910;6.792;2024-01-11T05:05:56;100018.78;;;-5.54;88.00
26807;BME280;14380;49.910;6.792;2024-01-11T05:08:23;100014.75;;;-5.74;88.54
26807;BME280;14380;49.910;6.792;2024-01-11T05:10:50;100013.84;;;-5.46;89.30
26807;BME280;14380;49.910;6.792;2024-01-11T05:13:17;100017.31;;;-5.74;87.86
26807;BME280;14380;49.910;6.792;2024-01-11T05:15:43;100018.75;;;-5.55;88.38
26807;BME280;14380;49.910;6.792;2024-01-11T05:18:11;100016.41;;;-5.75;87.58
26807;BME280;14380;49.910;6.792;2024-01-11T05:20:38;100023.41;;;-5.71;88.32
26807;BME280;14380;49.910;6.792;2024-01-11T05:23:05;100022.28;;;-5.79;88.95
26807;BME280;14380;49.910;6.792;2024-01-11T05:25:32;100026.81;;;-6.01;90.25
26807;BME280;14380;49.910;6.792;2024-01-11T05:27:59;100027.75;;;-5.68;89.00
26807;BME280;14380;49.910;6.792;2024-01-11T05:30:26;100032.38;;;-5.58;86.68
26807;BME280;14380;49.910;6.792;2024-01-11T05:32:53;100034.44;;;-6.02;88.02
26807;BME280;14380;49.910;6.792;2024-01-11T05:35:21;100033.06;;;-5.91;90.59
26807;BME280;14380;49.910;6.792;2024-01-11T05:37:49;100042.09;;;-5.76;87.97
26807;BME280;14380;49.910;6.792;2024-01-11T05:40:16;100041.84;;;-5.57;88.84
26807;BME280;14380;49.910;6.792;2024-01-11T05:42:42;100041.94;;;-5.81;88.96
26807;BME280;14380;49.910;6.792;2024-01-11T05:45:09;100038.31;;;-5.60;88.60
26807;BME280;14380;49.910;6.792;2024-01-11T05:47:35;100038.56;;;-5.51;88.98
26807;BME280;14380;49.910;6.792;2024-01-11T05:50:04;100042.44;;;-5.65;88.60
26807;BME280;14380;49.910;6.792;2024-01-11T05:52:32;100050.69;;;-5.76;90.40
26807;BME280;14380;49.910;6.792;2024-01-11T05:54:59;100055.47;;;-6.40;91.34
26807;BME280;14380;49.910;6.792;2024-01-11T05:57:26;100056.53;;;-6.09;91.29
26807;BME280;14380;49.910;6.792;2024-01-11T05:59:54;100069.66;;;-5.72;89.59
26807;BME280;14380;49.910;6.792;2024-01-11T06:02:21;100070.66;;;-5.94;89.08
26807;BME280;14380;49.910;6.792;2024-01-11T06:04:48;100069.22;;;-5.86;88.66
26807;BME280;14380;49.910;6.792;2024-01-11T06:07:16;100073.41;;;-5.62;89.12
26807;BME280;14380;49.910;6.792;2024-01-11T06:09:43;100075.25;;;-5.86;87.53
26807;BME280;14380;49.910;6.792;2024-01-11T06:12:10;100071.47;;;-5.95;88.55
26807;BME280;14380;49.910;6.792;2024-01-11T06:14:38;100072.41;;;-5.66;88.46
26807;BME280;14380;49.910;6.792;2024-01-11T06:17:04;100084.00;;;-5.80;90.44
26807;BME280;14380;49.910;6.792;2024-01-11T06:19:31;100077.47;;;-5.69;89.60
26807;BME280;14380;49.910;6.792;2024-01-11T06:21:58;100086.38;;;-5.85;90.01
26807;BME280;14380;49.910;6.792;2024-01-11T06:24:24;100097.19;;;-5.70;88.99
26807;BME280;14380;49.910;6.792;2024-01-11T06:26:52;100092.84;;;-5.98;91.35
26807;BME280;14380;49.910;6.792;2024-01-11T06:29:19;100090.91;;;-5.50;91.23
26807;BME280;14380;49.910;6.792;2024-01-11T06:31:45;100094.31;;;-5.79;91.16
26807;BME280;14380;49.910;6.792;2024-01-11T06:34:12;100113.53;;;-5.68;90.42
26807;BME280;14380;49.910;6.792;2024-01-11T06:36:39;100105.13;;;-5.62;91.86
26807;BME280;14380;49.910;6.792;2024-01-11T06:39:05;100112.53;;;-5.73;91.57
26807;BME280;14380;49.910;6.792;2024-01-11T06:41:32;100116.31;;;-5.61;91.17
26807;BME280;14380;49.910;6.792;2024-01-11T06:44:00;100116.63;;;-5.52;91.38
26807;BME280;14380;49.910;6.792;2024-01-11T06:46:26;100121.75;;;-5.79;90.19
26807;BME280;14380;49.910;6.792;2024-01-11T06:48:53;100122.56;;;-5.80;91.44
26807;BME280;14380;49.910;6.792;2024-01-11T06:51:21;100123.16;;;-5.62;90.18
26807;BME280;14380;49.910;6.792;2024-01-11T06:53:48;100125.91;;;-5.83;89.98
26807;BME280;14380;49.910;6.792;2024-01-11T06:56:15;100136.81;;;-5.64;90.57
26807;BME280;14380;49.910;6.792;2024-01-11T06:58:43;100142.06;;;-5.61;91.27
26807;BME280;14380;49.910;6.792;2024-01-11T07:01:11;100158.88;;;-5.97;90.75
26807;BME280;14380;49.910;6.792;2024-01-11T07:03:38;100154.72;;;-5.68;90.09
26807;BME280;14380;49.910;6.792;2024-01-11T07:06:05;100159.13;;;-5.89;89.13
26807;BME280;14380;49.910;6.792;2024-01-11T07:08:32;100152.28;;;-5.63;89.29
26807;BME280;14380;49.910;6.792;2024-01-11T07:11:00;100149.38;;;-5.72;88.83
26807;BME280;14380;49.910;6.792;2024-01-11T07:13:27;100152.03;;;-5.97;88.67
26807;BME280;14380;49.910;6.792;2024-01-11T07:15:54;100150.19;;;-5.75;88.31
26807;BME280;14380;49.910;6.792;2024-01-11T07:18:22;100155.38;;;-5.99;89.25
26807;BME280;14380;49.910;6.792;2024-01-11T07:20:49;100164.03;;;-5.95;89.41
26807;BME280;14380;49.910;6.792;2024-01-11T07:23:16;100156.69;;;-6.12;90.77
26807;BME280;14380;49.910;6.792;2024-01-11T07:25:43;100147.34;;;-5.83;89.91
26807;BME280;14380;49.910;6.792;2024-01-11T07:28:09;100157.56;;;-5.84;89.64
26807;BME280;14380;49.910;6.792;2024-01-11T07:30:36;100143.19;;;-5.79;89.93
26807;BME280;14380;49.910;6.792;2024-01-11T07:33:03;100142.56;;;-5.72;88.84
26807;BME280;14380;49.910;6.792;2024-01-11T07:35:31;100153.72;;;-5.71;89.23
26807;BME280;14380;49.910;6.792;2024-01-11T07:37:58;100142.16;;;-5.84;89.17
26807;BME280;14380;49.910;6.792;2024-01-11T07:40:24;100135.88;;;-5.39;89.00
26807;BME280;14380;49.910;6.792;2024-01-11T07:42:51;100145.00;;;-5.49;87.97
26807;BME280;14380;49.910;6.792;2024-01-11T07:45:18;100148.88;;;-5.62;88.18
26807;BME280;14380;49.910;6.792;2024-01-11T07:47:45;100153.50;;;-5.52;88.39
26807;BME280;14380;49.910;6.792;2024-01-11T07:50:12;100149.50;;;-5.69;89.28
26807;BME280;14380;49.910;6.792;2024-01-11T07:52:40;100149.41;;;-5.45;89.65
26807;BME280;14380;49.910;6.792;2024-01-11T07:55:08;100157.31;;;-5.13;89.71
26807;BME280;14380;49.910;6.792;2024-01-11T07:57:36;100157.13;;;-5.45;89.24
26807;BME280;14380;49.910;6.792;2024-01-11T08:00:04;100160.53;;;-5.46;88.83
26807;BME280;14380;49.910;6.792;2024-01-11T08:02:31;100157.94;;;-5.20;89.40
26807;BME280;14380;49.910;6.792;2024-01-11T08:04:58;100162.59;;;-5.35;88.97
26807;BME280;14380;49.910;6.792;2024-01-11T08:07:25;100166.16;;;-5.32;89.62
26807;BME280;14380;49.910;6.792;2024-01-11T08:09:53;100177.31;;;-5.31;90.31
26807;BME280;14380;49.910;6.792;2024-01-11T08:12:19;100174.59;;;-5.36;91.64
26807;BME280;14380;49.910;6.792;2024-01-11T08:14:46;100170.75;;;-5.22;90.71
26807;BME280;14380;49.910;6.792;2024-01-11T08:17:13;100164.97;;;-5.14;89.35
26807;BME280;14380;49.910;6.792;2024-01-11T08:19:40;100173.22;;;-5.52;91.88
26807;BME280;14380;49.910;6.792;2024-01-11T08:22:07;100172.47;;;-5.22;91.29
26807;BME280;14380;49.910;6.792;2024-01-11T08:24:34;100170.50;;;-5.02;91.87
26807;BME280;14380;49.910;6.792;2024-01-11T08:27:03;100167.38;;;-4.91;91.28
26807;BME280;14380;49.910;6.792;2024-01-11T08:29:30;100161.16;;;-4.69;91.22
26807;BME280;14380;49.910;6.792;2024-01-11T08:31:56;100161.00;;;-4.75;91.55
26807;BME280;14380;49.910;6.792;2024-01-11T08:34:23;100167.06;;;-4.73;90.20
26807;BME280;14380;49.910;6.792;2024-01-11T08:36:51;100162.22;;;-4.32;90.55
26807;BME280;14380;49.910;6.792;2024-01-11T08:39:19;100158.44;;;-4.13;88.91
26807;BME280;14380;49.910;6.792;2024-01-11T08:41:46;100160.66;;;-3.93;87.89
26807;BME280;14380;49.910;6.792;2024-01-11T08:44:14;100166.78;;;-3.90;87.49
26807;BME280;14380;49.910;6.792;2024-01-11T08:46:41;100157.56;;;-3.80;87.73
26807;BME280;14380;49.910;6.792;2024-01-11T08:49:09;100160.53;;;-3.64;86.44
26807;BME280;14380;49.910;6.792;2024-01-11T08:51:35;100160.31;;;-3.74;86.01
26807;BME280;14380;49.910;6.792;2024-01-11T08:54:02;100159.28;;;-3.80;86.48
26807;BME280;14380;49.910;6.792;2024-01-11T08:56:30;100159.66;;;-3.65;86.57
26807;BME280;14380;49.910;6.792;2024-01-11T08:58:57;100157.00;;;-3.33;84.74
26807;BME280;14380;49.910;6.792;2024-01-11T09:01:25;100160.28;;;-3.40;84.17
26807;BME280;14380;49.910;6.792;2024-01-11T09:03:54;100157.03;;;-3.31;85.16
26807;BME280;14380;49.910;6.792;2024-01-11T09:06:20;100161.47;;;-3.25;85.35
26807;BME280;14380;49.910;6.792;2024-01-11T09:08:47;100156.63;;;-3.11;84.67
26807;BME280;14380;49.910;6.792;2024-01-11T09:11:15;100158.63;;;-3.36;85.52
26807;BME280;14380;49.910;6.792;2024-01-11T09:13:42;100151.88;;;-2.93;83.74
26807;BME280;14380;49.910;6.792;2024-01-11T09:16:08;100144.94;;;-2.94;83.57
26807;BME280;14380;49.910;6.792;2024-01-11T09:18:37;100151.31;;;-2.79;83.90
26807;BME280;14380;49.910;6.792;2024-01-11T09:21:03;100149.13;;;-3.01;83.78
26807;BME280;14380;49.910;6.792;2024-01-11T09:23:30;100150.94;;;-2.96;84.33
26807;BME280;14380;49.910;6.792;2024-01-11T09:25:57;100154.44;;;-2.94;84.58
26807;BME280;14380;49.910;6.792;2024-01-11T09:28:23;100163.19;;;-2.88;84.46
26807;BME280;14380;49.910;6.792;2024-01-11T09:30:50;100162.88;;;-3.02;84.86
26807;BME280;14380;49.910;6.792;2024-01-11T09:33:16;100186.97;;;-3.03;85.24
26807;BME280;14380;49.910;6.792;2024-01-11T09:35:45;100191.53;;;-2.92;83.97
26807;BME280;14380;49.910;6.792;2024-01-11T09:38:11;100185.75;;;-2.80;82.54
26807;BME280;14380;49.910;6.792;2024-01-11T09:40:38;100188.03;;;-2.94;84.46
26807;BME280;14380;49.910;6.792;2024-01-11T09:43:06;100185.97;;;-2.70;83.01
26807;BME280;14380;49.910;6.792;2024-01-11T09:45:36;100188.56;;;-3.08;84.41
26807;BME280;14380;49.910;6.792;2024-01-11T09:48:04;100189.38;;;-2.72;83.34
26807;BME280;14380;49.910;6.792;2024-01-11T09:50:32;100180.97;;;-3.02;84.53
26807;BME280;14380;49.910;6.792;2024-01-11T09:53:01;100178.78;;;-2.83;84.67
26807;BME280;14380;49.910;6.792;2024-01-11T09:55:30;100182.03;;;-2.52;83.13
26807;BME280;14380;49.910;6.792;2024-01-11T09:57:59;100190.09;;;-2.78;83.37
26807;BME280;14380;49.910;6.792;2024-01-11T10:00:27;100194.63;;;-2.69;84.55
26807;BME280;14380;49.910;6.792;2024-01-11T10:02:54;100181.72;;;-2.67;84.53
26807;BME280;14380;49.910;6.792;2024-01-11T10:05:21;100182.47;;;-2.32;82.87
26807;BME280;14380;49.910;6.792;2024-01-11T10:07:48;100177.50;;;-2.19;82.54
26807;BME280;14380;49.910;6.792;2024-01-11T10:10:17;100171.06;;;-2.40;82.79
26807;BME280;14380;49.910;6.792;2024-01-11T10:12:43;100168.81;;;-2.23;82.54
26807;BME280;14380;49.910;6.792;2024-01-11T10:15:10;100180.06;;;-2.22;82.61
26807;BME280;14380;49.910;6.792;2024-01-11T10:17:42;100172.03;;;-2.35;83.13
26807;BME280;14380;49.910;6.792;2024-01-11T10:20:10;100180.19;;;-2.15;81.97
26807;BME280;14380;49.910;6.792;2024-01-11T10:22:39;100172.00;;;-2.36;83.27
26807;BME280;14380;49.910;6.792;2024-01-11T10:25:09;100176.84;;;-2.11;81.52
26807;BME280;14380;49.910;6.792;2024-01-11T10:27:39;100174.31;;;-2.07;82.09
26807;BME280;14380;49.910;6.792;2024-01-11T10:30:06;100162.28;;;-2.48;83.52
26807;BME280;14380;49.910;6.792;2024-01-11T10:32:33;100177.22;;;-2.33;83.51
26807;BME280;14380;49.910;6.792;2024-01-11T10:35:01;100177.69;;;-2.10;82.74
26807;BME280;14380;49.910;6.792;2024-01-11T10:37:30;100170.16;;;-1.99;82.67
26807;BME280;14380;49.910;6.792;2024-01-11T10:39:57;100169.41;;;-1.92;81.44
26807;BME280;14380;49.910;6.792;2024-01-11T10:42:25;100173.66;;;-2.40;84.00
26807;BME280;14380;49.910;6.792;2024-01-11T10:44:57;100169.56;;;-1.83;82.78
26807;BME280;14380;49.910;6.792;2024-01-11T10:47:30;100180.63;;;-1.91;83.86
26807;BME280;14380;49.910;6.792;2024-01-11T10:49:57;100182.44;;;-1.86;83.56
26807;BME280;14380;49.910;6.792;2024-01-11T10:52:36;100183.75;;;-1.60;83.11
26807;BME280;14380;49.910;6.792;2024-01-11T10:55:09;100177.84;;;-1.55;81.76
26807;BME280;14380;49.910;6.792;2024-01-11T10:57:36;100169.56;;;-1.84;82.64
26807;BME280;14380;49.910;6.792;2024-01-11T11:00:07;100164.72;;;-1.64;82.76
26807;BME280;14380;49.910;6.792;2024-01-11T11:02:37;100144.59;;;-1.25;82.28
26807;BME280;14380;49.910;6.792;2024-01-11T11:05:06;100143.91;;;-1.16;81.70
26807;BME280;14380;49.910;6.792;2024-01-11T11:07:35;100134.97;;;-1.34;81.30
26807;BME280;14380;49.910;6.792;2024-01-11T11:10:02;100140.88;;;-0.83;79.43
26807;BME280;14380;49.910;6.792;2024-01-11T11:12:32;100144.69;;;-1.19;79.82
26807;BME280;14380;49.910;6.792;2024-01-11T11:15:01;100147.88;;;-0.79;78.02
26807;BME280;14380;49.910;6.792;2024-01-11T11:17:29;100156.13;;;-1.06;79.55
26807;BME280;14380;49.910;6.792;2024-01-11T11:19:56;100152.91;;;-0.90;79.61
26807;BME280;14380;49.910;6.792;2024-01-11T11:22:23;100142.72;;;-0.77;78.17
26807;BME280;14380;49.910;6.792;2024-01-11T11:25:03;100139.09;;;-0.88;78.73
26807;BME280;14380;49.910;6.792;2024-01-11T11:27:30;100154.06;;;-0.69;78.57
26807;BME280;14380;49.910;6.792;2024-01-11T11:29:56;100144.66;;;-0.59;77.53
26807;BME280;14380;49.910;6.792;2024-01-11T11:32:36;100147.19;;;-0.65;77.96
26807;BME280;14380;49.910;6.792;2024-01-11T11:35:03;100145.47;;;-0.62;78.24
26807;BME280;14380;49.910;6.792;2024-01-11T11:37:30;100141.09;;;-0.67;78.45
26807;BME280;14380;49.910;6.792;2024-01-11T11:39:58;100136.84;;;-0.62;77.74
26807;BME280;14380;49.910;6.792;2024-01-11T11:42:25;100133.66;;;-0.41;76.30
26807;BME280;14380;49.910;6.792;2024-01-11T11:44:54;100128.00;;;-0.04;75.48
26807;BME280;14380;49.910;6.792;2024-01-11T11:47:21;100135.47;;;-0.34;76.32
26807;BME280;14380;49.910;6.792;2024-01-11T11:50:03;100136.25;;;-0.39;76.79
26807;BME280;14380;49.910;6.792;2024-01-11T11:52:32;100142.44;;;-0.29;76.41
26807;BME280;14380;49.910;6.792;2024-01-11T11:54:59;100129.25;;;-0.47;75.97
26807;BME280;14380;49.910;6.792;2024-01-11T11:57:26;100132.47;;;0.11;74.13
26807;BME280;14380;49.910;6.792;2024-01-11T11:59:54;100124.41;;;-0.14;74.77
26807;BME280;14380;49.910;6.792;2024-01-11T12:02:22;100123.66;;;-0.04;76.20
26807;BME280;14380;49.910;6.792;2024-01-11T12:04:49;100117.50;;;-0.13;75.37
26807;BME280;14380;49.910;6.792;2024-01-11T12:07:17;100122.75;;;-0.09;75.88
26807;BME280;14380;49.910;6.792;2024-01-11T12:09:44;100114.91;;;-0.12;75.73
26807;BME280;14380;49.910;6.792;2024-01-11T12:12:12;100114.13;;;-0.05;76.82
26807;BME280;14380;49.910;6.792;2024-01-11T12:14:39;100117.63;;;-0.03;75.70
26807;BME280;14380;49.910;6.792;2024-01-11T12:17:06;100114.16;;;-0.02;78.00
26807;BME280;14380;49.910;6.792;2024-01-11T12:19:33;100114.88;;;-0.17;76.65
26807;BME280;14380;49.910;6.792;2024-01-11T12:21:59;100113.25;;;-0.08;76.75
26807;BME280;14380;49.910;6.792;2024-01-11T12:24:29;100115.13;;;0.07;77.16
26807;BME280;14380;49.910;6.792;2024-01-11T12:26:56;100118.66;;;0.17;75.20
26807;BME280;14380;49.910;6.792;2024-01-11T12:29:23;100111.50;;;-0.08;77.14
26807;BME280;14380;49.910;6.792;2024-01-11T12:31:50;100106.56;;;0.17;76.61
26807;BME280;14380;49.910;6.792;2024-01-11T12:34:17;100107.88;;;-0.25;79.47
26807;BME280;14380;49.910;6.792;2024-01-11T12:36:44;100104.66;;;0.01;78.73
26807;BME280;14380;49.910;6.792;2024-01-11T12:39:11;100106.44;;;0.05;78.89
26807;BME280;14380;49.910;6.792;2024-01-11T12:41:40;100103.78;;;-0.03;78.97
26807;BME280;14380;49.910;6.792;2024-01-11T12:44:06;100099.47;;;-0.01;79.23
26807;BME280;14380;49.910;6.792;2024-01-11T12:46:33;100095.69;;;-0.31;79.62
26807;BME280;14380;49.910;6.792;2024-01-11T12:49:00;100099.25;;;-0.23;78.95
26807;BME280;14380;49.910;6.792;2024-01-11T12:51:26;100093.28;;;-0.11;78.94